createdAt,value
2023-05-11T00:00:33.685Z,11.02
2023-05-11T00:02:38.010Z,11.01
2023-05-11T00:04:42.069Z,11.02
2023-05-11T00:06:46.442Z,11.02
2023-05-11T00:08:52.511Z,11.02
2023-05-11T00:10:56.746Z,11.03
2023-05-11T00:13:00.847Z,11.01
2023-05-11T00:15:05.241Z,11.02
2023-05-11T00:17:09.630Z,11.03
2023-05-11T00:19:13.878Z,11.04
2023-05-11T00:21:18.110Z,11.05
2023-05-11T00:23:22.208Z,11.01
2023-05-11T00:25:27.633Z,10.99
2023-05-11T00:27:31.495Z,10.96
2023-05-11T00:29:35.678Z,10.94
2023-05-11T00:31:39.537Z,10.92
2023-05-11T00:33:43.674Z,10.92
2023-05-11T00:35:49.531Z,10.92
2023-05-11T00:37:53.518Z,10.93
2023-05-11T00:39:57.404Z,10.92
2023-05-11T00:42:03.969Z,10.92
2023-05-11T00:44:08.538Z,10.89
2023-05-11T00:46:12.510Z,10.87
2023-05-11T00:48:16.785Z,10.83
2023-05-11T00:50:20.942Z,10.80
2023-05-11T00:52:25.217Z,10.77
2023-05-11T00:54:29.400Z,10.76
2023-05-11T00:56:33.388Z,10.75
2023-05-11T00:58:39.858Z,10.72
2023-05-11T01:00:44.873Z,10.70
2023-05-11T01:02:49.378Z,10.66
2023-05-11T01:04:53.336Z,10.65
2023-05-11T01:07:05.922Z,10.62
2023-05-11T01:09:18.886Z,10.60
2023-05-11T01:11:31.072Z,10.59
2023-05-11T01:13:41.099Z,10.57
2023-05-11T01:15:47.647Z,10.55
2023-05-11T01:17:57.515Z,10.55
2023-05-11T01:20:07.473Z,10.54
2023-05-11T01:22:23.474Z,10.52
2023-05-11T01:24:39.314Z,10.52
2023-05-11T01:27:00.813Z,10.48
2023-05-11T01:29:26.125Z,10.47
2023-05-11T01:31:32.642Z,10.48
2023-05-11T01:33:41.014Z,10.47
2023-05-11T01:35:52.421Z,10.47
2023-05-11T01:37:58.872Z,10.45
2023-05-11T01:40:06.168Z,10.42
2023-05-11T01:42:11.572Z,10.40
2023-05-11T01:44:18.291Z,10.40
2023-05-11T01:46:25.390Z,10.37
2023-05-11T01:48:33.334Z,10.36
2023-05-11T01:50:39.123Z,10.35
2023-05-11T01:52:44.134Z,10.33
2023-05-11T01:54:48.765Z,10.32
2023-05-11T01:56:54.368Z,10.32
2023-05-11T01:59:01.072Z,10.30
2023-05-11T02:01:05.439Z,10.29
2023-05-11T02:03:11.409Z,10.25
2023-05-11T02:05:20.874Z,10.24
2023-05-11T02:07:26.004Z,10.22
2023-05-11T02:09:33.352Z,10.22
2023-05-11T02:11:39.536Z,10.20
2023-05-11T02:13:46.344Z,10.19
2023-05-11T02:15:54.281Z,10.19
2023-05-11T02:18:00.286Z,10.20
2023-05-11T02:20:04.707Z,10.19
2023-05-11T02:22:12.689Z,10.20
2023-05-11T02:24:17.390Z,10.19
2023-05-11T02:26:20.828Z,10.20
2023-05-11T02:28:24.367Z,10.21
2023-05-11T02:30:30.319Z,10.20
2023-05-11T02:32:39.491Z,10.20
2023-05-11T02:34:44.836Z,10.19
2023-05-11T02:36:50.477Z,10.20
2023-05-11T02:39:04.022Z,10.19
2023-05-11T02:41:14.804Z,10.21
2023-05-11T02:43:24.684Z,10.21
2023-05-11T02:45:36.858Z,10.23
2023-05-11T02:47:47.305Z,10.24
2023-05-11T02:49:58.643Z,10.25
2023-05-11T02:52:05.347Z,10.27
2023-05-11T02:54:15.590Z,10.27
2023-05-11T02:56:25.776Z,10.30
2023-05-11T02:58:31.499Z,10.31
2023-05-11T03:00:48.093Z,10.33
2023-05-11T03:02:51.697Z,10.34
2023-05-11T03:04:57.900Z,10.39
2023-05-11T03:07:01.727Z,10.41
2023-05-11T03:09:05.837Z,10.43
2023-05-11T03:11:16.232Z,10.46
2023-05-11T03:13:24.012Z,10.47
2023-05-11T03:15:30.556Z,10.46
2023-05-11T03:17:37.216Z,10.44
2023-05-11T03:19:43.629Z,10.43
2023-05-11T03:21:48.969Z,10.43
2023-05-11T03:23:52.891Z,10.42
2023-05-11T03:25:56.894Z,10.42
2023-05-11T03:28:03.037Z,10.41
2023-05-11T03:30:11.158Z,10.38
2023-05-11T03:32:19.290Z,10.39
2023-05-11T03:34:23.527Z,10.38
2023-05-11T03:36:28.405Z,10.34
2023-05-11T03:38:33.682Z,10.33
2023-05-11T03:40:39.628Z,10.30
2023-05-11T03:42:44.847Z,10.27
2023-05-11T03:44:51.144Z,10.24
2023-05-11T03:46:55.825Z,10.23
2023-05-11T03:49:00.534Z,10.24
2023-05-11T03:51:06.534Z,10.23
2023-05-11T03:53:10.396Z,10.23
2023-05-11T03:55:13.889Z,10.24
2023-05-11T03:57:17.830Z,10.23
2023-05-11T03:59:22.668Z,10.24
2023-05-11T04:01:28.498Z,10.23
2023-05-11T04:03:32.002Z,10.24
2023-05-11T04:05:35.761Z,10.24
2023-05-11T04:07:41.620Z,10.23
2023-05-11T04:09:44.915Z,10.24
2023-05-11T04:11:48.793Z,10.27
2023-05-11T04:13:52.292Z,10.26
2023-05-11T04:15:55.646Z,10.26
2023-05-11T04:18:00.525Z,10.25
2023-05-11T04:20:04.050Z,10.24
2023-05-11T04:22:07.462Z,10.24
2023-05-11T04:24:11.002Z,10.22
2023-05-11T04:26:16.717Z,10.22
2023-05-11T04:28:20.353Z,10.22
2023-05-11T04:30:24.537Z,10.24
2023-05-11T04:32:28.672Z,10.25
2023-05-11T04:34:35.183Z,10.25
2023-05-11T04:36:42.322Z,10.25
2023-05-11T04:38:46.193Z,10.24
2023-05-11T04:40:50.963Z,10.26
2023-05-11T04:42:56.406Z,10.25
2023-05-11T04:45:00.691Z,10.27
2023-05-11T04:47:05.064Z,10.30
2023-05-11T04:49:09.702Z,10.31
2023-05-11T04:51:17.762Z,10.33
2023-05-11T04:53:22.515Z,10.33
2023-05-11T04:55:26.833Z,10.35
2023-05-11T04:57:32.952Z,10.37
2023-05-11T04:59:38.329Z,10.36
2023-05-11T05:01:42.288Z,10.37
2023-05-11T05:03:49.548Z,10.37
2023-05-11T05:05:55.534Z,10.36
2023-05-11T05:08:01.212Z,10.38
2023-05-11T05:10:09.387Z,10.38
2023-05-11T05:12:13.633Z,10.41
2023-05-11T05:14:17.802Z,10.41
2023-05-11T05:16:21.941Z,10.43
2023-05-11T05:18:26.234Z,10.44
2023-05-11T05:20:30.003Z,10.43
2023-05-11T05:22:35.421Z,10.45
2023-05-11T05:24:41.297Z,10.45
2023-05-11T05:26:45.928Z,10.45
2023-05-11T05:28:50.375Z,10.46
2023-05-11T05:30:56.510Z,10.47
2023-05-11T05:33:00.934Z,10.47
2023-05-11T05:35:05.109Z,10.50
2023-05-11T05:37:08.672Z,10.51
2023-05-11T05:39:12.914Z,10.50
2023-05-11T05:41:18.865Z,10.50
2023-05-11T05:43:23.352Z,10.53
2023-05-11T05:45:27.411Z,10.53
2023-05-11T05:47:32.112Z,10.53
2023-05-11T05:49:36.296Z,10.53
2023-05-11T05:51:41.845Z,10.55
2023-05-11T05:53:45.870Z,10.57
2023-05-11T05:55:50.255Z,10.58
2023-05-11T05:57:55.544Z,10.59
2023-05-11T05:59:59.466Z,10.60
2023-05-11T06:02:03.522Z,10.62
2023-05-11T06:04:08.451Z,10.65
2023-05-11T06:06:13.203Z,10.68
2023-05-11T06:08:17.458Z,10.68
2023-05-11T06:10:22.016Z,10.71
2023-05-11T06:12:26.141Z,10.75
2023-05-11T06:14:33.817Z,10.81
2023-05-11T06:16:38.943Z,10.87
2023-05-11T06:18:42.829Z,10.94
2023-05-11T06:20:47.069Z,10.99
2023-05-11T06:22:52.335Z,11.02
2023-05-11T06:24:56.676Z,11.09
2023-05-11T06:27:01.911Z,11.17
2023-05-11T06:29:16.697Z,11.23
2023-05-11T06:31:25.226Z,11.32
2023-05-11T06:33:29.957Z,11.38
2023-05-11T06:35:34.008Z,11.61
2023-05-11T06:37:38.418Z,11.82
2023-05-11T06:39:42.546Z,11.95
2023-05-11T06:41:46.429Z,12.07
2023-05-11T06:43:50.490Z,12.25
2023-05-11T06:46:06.495Z,12.65
2023-05-11T06:48:12.061Z,12.88
2023-05-11T06:50:16.395Z,13.02
2023-05-11T06:52:20.170Z,13.26
2023-05-11T06:54:27.143Z,13.42
2023-05-11T06:56:32.353Z,13.34
2023-05-11T06:58:36.264Z,13.18
2023-05-11T07:00:39.991Z,13.01
2023-05-11T07:02:43.754Z,12.83
2023-05-11T07:04:49.119Z,12.71
2023-05-11T07:06:53.141Z,12.58
2023-05-11T07:08:57.029Z,12.48
2023-05-11T07:11:01.535Z,12.39
2023-05-11T07:13:05.610Z,12.30
2023-05-11T07:15:10.689Z,12.18
2023-05-11T07:17:14.150Z,12.06
2023-05-11T07:19:18.118Z,11.99
2023-05-11T07:21:23.532Z,11.94
2023-05-11T07:23:27.449Z,11.91
2023-05-11T07:25:31.206Z,11.86
2023-05-11T07:27:35.132Z,11.82
2023-05-11T07:29:38.816Z,11.77
2023-05-11T07:31:43.161Z,11.76
2023-05-11T07:33:47.533Z,11.78
2023-05-11T07:35:52.544Z,11.80
2023-05-11T07:37:57.771Z,11.84
2023-05-11T07:40:01.371Z,11.91
2023-05-11T07:42:05.223Z,11.95
2023-05-11T07:44:08.866Z,11.97
2023-05-11T07:46:12.493Z,11.98
2023-05-11T07:48:16.651Z,11.99
2023-05-11T07:50:22.929Z,12.03
2023-05-11T07:52:28.017Z,12.10
2023-05-11T07:54:33.047Z,12.18
2023-05-11T07:56:36.714Z,12.31
2023-05-11T07:58:40.394Z,12.42
2023-05-11T08:00:44.223Z,12.51
2023-05-11T08:02:48.104Z,12.65
2023-05-11T08:04:51.954Z,12.76
2023-05-11T08:06:56.853Z,12.84
2023-05-11T08:09:00.651Z,12.90
2023-05-11T08:11:06.584Z,12.99
2023-05-11T08:13:10.424Z,13.09
2023-05-11T08:15:14.533Z,13.16
2023-05-11T08:17:18.758Z,13.21
2023-05-11T08:19:22.745Z,13.26
2023-05-11T08:21:26.826Z,13.29
2023-05-11T08:23:30.773Z,13.20
2023-05-11T08:25:35.306Z,13.11
2023-05-11T08:27:41.319Z,13.03
2023-05-11T08:29:45.705Z,12.96
2023-05-11T08:31:50.984Z,12.99
2023-05-11T08:33:54.850Z,13.09
2023-05-11T08:35:58.758Z,13.18
2023-05-11T08:38:02.518Z,13.28
2023-05-11T08:40:07.036Z,13.43
2023-05-11T08:42:14.132Z,13.58
2023-05-11T08:44:20.348Z,13.73
2023-05-11T08:46:27.538Z,13.87
2023-05-11T08:48:31.897Z,13.98
2023-05-11T08:50:36.002Z,14.07
2023-05-11T08:52:41.019Z,14.09
2023-05-11T08:54:45.164Z,14.07
2023-05-11T08:56:51.904Z,14.01
2023-05-11T08:58:57.630Z,13.97
2023-05-11T09:01:04.064Z,13.85
2023-05-11T09:03:08.602Z,13.72
2023-05-11T09:05:12.978Z,13.56
2023-05-11T09:07:18.809Z,13.48
2023-05-11T09:09:23.378Z,13.54
2023-05-11T09:11:28.020Z,13.76
2023-05-11T09:13:32.542Z,14.02
2023-05-11T09:15:38.297Z,14.20
2023-05-11T09:17:43.921Z,14.28
2023-05-11T09:20:01.364Z,14.27
2023-05-11T09:22:07.975Z,14.20
2023-05-11T09:24:14.449Z,14.14
2023-05-11T09:26:18.457Z,14.11
2023-05-11T09:28:26.956Z,14.11
2023-05-11T09:30:31.230Z,14.12
2023-05-11T09:32:50.656Z,13.92
2023-05-11T09:34:54.594Z,13.72
2023-05-11T09:36:58.625Z,13.52
2023-05-11T09:39:04.052Z,13.38
2023-05-11T09:41:08.525Z,13.28
2023-05-11T09:43:18.832Z,13.19
2023-05-11T09:45:42.242Z,13.13
2023-05-11T09:47:47.630Z,13.04
2023-05-11T09:49:54.042Z,13.09
2023-05-11T09:52:02.669Z,13.20
2023-05-11T09:54:18.603Z,13.53
2023-05-11T09:56:22.310Z,13.91
2023-05-11T09:58:26.237Z,14.16
2023-05-11T10:00:30.024Z,14.32
2023-05-11T10:02:34.736Z,14.42
2023-05-11T10:04:38.735Z,14.42
2023-05-11T10:06:49.146Z,14.29
2023-05-11T10:08:52.942Z,14.07
2023-05-11T10:10:58.890Z,13.88
2023-05-11T10:13:04.435Z,13.72
2023-05-11T10:15:10.259Z,13.52
2023-05-11T10:17:16.003Z,13.35
2023-05-11T10:19:21.072Z,13.21
2023-05-11T10:21:24.975Z,13.14
2023-05-11T10:23:33.913Z,13.12
2023-05-11T10:25:37.624Z,13.18
2023-05-11T10:27:41.906Z,13.24
2023-05-11T10:29:45.906Z,13.26
2023-05-11T10:31:51.942Z,13.22
2023-05-11T10:33:57.448Z,13.21
2023-05-11T10:36:01.673Z,13.24
2023-05-11T10:38:06.879Z,13.26
2023-05-11T10:40:12.908Z,13.29
2023-05-11T10:42:39.712Z,13.37
2023-05-11T10:45:01.943Z,13.52
2023-05-11T10:47:22.998Z,13.70
2023-05-11T10:49:44.535Z,13.87
2023-05-11T10:52:03.631Z,14.09
2023-05-11T10:54:22.692Z,14.40
2023-05-11T10:56:42.511Z,14.75
2023-05-11T10:59:05.374Z,15.00
2023-05-11T11:01:28.243Z,15.08
2023-05-11T11:03:32.930Z,15.06
2023-05-11T11:05:38.285Z,14.97
2023-05-11T11:08:04.240Z,14.82
2023-05-11T11:10:10.234Z,14.52
2023-05-11T11:12:16.170Z,14.22
2023-05-11T11:14:20.359Z,14.05
2023-05-11T11:16:26.244Z,13.84
2023-05-11T11:18:30.944Z,13.73
2023-05-11T11:20:51.050Z,13.60
2023-05-11T11:22:54.636Z,13.47
2023-05-11T11:24:58.280Z,13.30
2023-05-11T11:27:01.907Z,13.13
2023-05-11T11:29:13.557Z,12.97
2023-05-11T11:31:27.839Z,12.82
2023-05-11T11:33:35.142Z,12.72
2023-05-11T11:35:49.036Z,12.56
2023-05-11T11:38:02.341Z,12.48
2023-05-11T11:40:14.605Z,12.40
2023-05-11T11:42:20.637Z,12.38
2023-05-11T11:44:25.886Z,12.36
2023-05-11T11:46:30.686Z,12.35
2023-05-11T11:48:35.861Z,12.32
2023-05-11T11:50:41.673Z,12.31
2023-05-11T11:52:45.231Z,12.30
2023-05-11T11:54:49.094Z,12.28
2023-05-11T11:56:52.681Z,12.23
2023-05-11T11:59:00.534Z,12.20
2023-05-11T12:01:05.786Z,12.18
2023-05-11T12:03:11.721Z,12.18
2023-05-11T12:05:18.702Z,12.21
2023-05-11T12:07:23.069Z,12.23
2023-05-11T12:09:27.047Z,12.26
2023-05-11T12:11:31.500Z,12.29
2023-05-11T12:13:36.713Z,12.31
2023-05-11T12:15:40.314Z,12.29
2023-05-11T12:17:45.425Z,12.28
2023-05-11T12:19:48.991Z,12.25
2023-05-11T12:21:52.593Z,12.23
2023-05-11T12:23:57.515Z,12.17
2023-05-11T12:26:05.008Z,12.14
2023-05-11T12:28:09.615Z,12.10
2023-05-11T12:30:22.257Z,12.06
2023-05-11T12:32:30.727Z,12.08
2023-05-11T12:34:36.575Z,12.11
2023-05-11T12:36:41.390Z,12.19
2023-05-11T12:38:46.310Z,12.30
2023-05-11T12:40:53.780Z,12.41
2023-05-11T12:42:59.142Z,12.52
2023-05-11T12:45:03.387Z,12.63
2023-05-11T12:47:07.647Z,12.71
2023-05-11T12:49:14.097Z,12.76
2023-05-11T12:51:50.829Z,12.82
2023-05-11T12:53:55.048Z,12.90
2023-05-11T12:56:02.203Z,12.94
2023-05-11T12:58:10.127Z,12.99
2023-05-11T13:00:15.920Z,13.00
2023-05-11T13:02:21.962Z,13.00
2023-05-11T13:04:33.095Z,12.94
2023-05-11T13:06:36.745Z,12.83
2023-05-11T13:08:47.140Z,12.80
2023-05-11T13:10:51.519Z,12.77
2023-05-11T13:12:56.428Z,12.75
2023-05-11T13:15:13.019Z,12.68
2023-05-11T13:17:31.578Z,12.63
2023-05-11T13:19:35.614Z,12.58
2023-05-11T13:21:39.542Z,12.51
2023-05-11T13:23:50.740Z,12.45
2023-05-11T13:25:55.363Z,12.40
2023-05-11T13:27:59.168Z,12.39
2023-05-11T13:30:02.880Z,12.38
2023-05-11T13:32:07.374Z,12.38
2023-05-11T13:34:12.062Z,12.38
2023-05-11T13:36:15.702Z,12.36
2023-05-11T13:38:19.776Z,12.36
2023-05-11T13:40:25.600Z,12.44
2023-05-11T13:42:30.369Z,12.54
2023-05-11T13:44:34.244Z,12.69
2023-05-11T13:46:38.583Z,12.85
2023-05-11T13:48:42.154Z,13.04
2023-05-11T13:50:45.565Z,13.21
2023-05-11T13:52:48.846Z,13.36
2023-05-11T13:54:52.306Z,13.48
2023-05-11T13:56:57.894Z,13.54
2023-05-11T13:59:01.404Z,13.62
2023-05-11T14:01:08.323Z,13.67
2023-05-11T14:03:12.569Z,13.71
2023-05-11T14:05:16.384Z,13.73
2023-05-11T14:07:19.896Z,13.69
2023-05-11T14:09:24.413Z,13.71
2023-05-11T14:11:29.488Z,13.69
2023-05-11T14:13:34.401Z,13.67
2023-05-11T14:15:38.666Z,13.61
2023-05-11T14:17:43.419Z,13.59
2023-05-11T14:19:47.633Z,13.58
2023-05-11T14:21:51.273Z,13.60
2023-05-11T14:24:09.794Z,13.62
2023-05-11T14:26:14.297Z,13.74
2023-05-11T14:28:18.189Z,13.71
2023-05-11T14:30:23.220Z,13.70
2023-05-11T14:32:27.638Z,13.83
2023-05-11T14:34:31.593Z,14.04
2023-05-11T14:36:35.637Z,14.14
2023-05-11T14:38:39.201Z,14.13
2023-05-11T14:40:42.971Z,13.87
2023-05-11T14:42:47.050Z,13.67
2023-05-11T14:44:51.136Z,13.48
2023-05-11T14:46:56.405Z,13.39
2023-05-11T14:49:07.109Z,13.34
2023-05-11T14:51:10.588Z,13.48
2023-05-11T14:53:14.019Z,13.51
2023-05-11T14:55:17.792Z,13.42
2023-05-11T14:57:21.709Z,13.39
2023-05-11T14:59:25.602Z,13.29
2023-05-11T15:01:29.052Z,13.31
2023-05-11T15:03:34.487Z,13.44
2023-05-11T15:05:38.333Z,13.61
2023-05-11T15:07:42.038Z,13.53
2023-05-11T15:09:46.294Z,13.56
2023-05-11T15:11:50.214Z,13.69
2023-05-11T15:13:53.984Z,13.71
2023-05-11T15:15:58.636Z,13.76
2023-05-11T15:18:02.160Z,13.67
2023-05-11T15:20:08.748Z,13.52
2023-05-11T15:22:12.725Z,13.42
2023-05-11T15:24:17.279Z,13.33
2023-05-11T15:26:21.832Z,13.15
2023-05-11T15:28:26.238Z,12.98
2023-05-11T15:30:32.528Z,12.84
2023-05-11T15:32:37.008Z,12.75
2023-05-11T15:34:54.975Z,12.73
2023-05-11T15:37:03.968Z,12.82
2023-05-11T15:39:07.985Z,12.82
2023-05-11T15:41:11.529Z,12.80
2023-05-11T15:43:14.994Z,12.81
2023-05-11T15:45:18.862Z,12.75
2023-05-11T15:47:22.461Z,12.73
2023-05-11T15:49:25.873Z,12.70
2023-05-11T15:51:29.426Z,12.69
2023-05-11T15:53:34.186Z,12.64
2023-05-11T15:55:39.178Z,12.56
2023-05-11T15:57:42.646Z,12.52
2023-05-11T15:59:46.672Z,12.51
2023-05-11T16:01:50.360Z,12.47
2023-05-11T16:03:53.772Z,12.47
2023-05-11T16:05:57.184Z,12.51
2023-05-11T16:08:00.620Z,12.58
2023-05-11T16:10:06.788Z,12.57
2023-05-11T16:12:11.822Z,12.55
2023-05-11T16:14:16.027Z,12.59
2023-05-11T16:16:20.226Z,12.61
2023-05-11T16:18:24.125Z,12.49
2023-05-11T16:20:27.921Z,12.43
2023-05-11T16:22:32.649Z,12.41
2023-05-11T16:24:36.235Z,12.41
2023-05-11T16:26:41.384Z,12.44
2023-05-11T16:28:45.347Z,12.43
2023-05-11T16:30:49.045Z,12.41
2023-05-11T16:32:53.593Z,12.43
2023-05-11T16:34:57.414Z,12.45
2023-05-11T16:37:01.218Z,12.44
2023-05-11T16:39:06.559Z,12.39
2023-05-11T16:41:11.592Z,12.38
2023-05-11T16:43:16.838Z,12.31
2023-05-11T16:45:21.115Z,12.35
2023-05-11T16:47:25.610Z,12.34
2023-05-11T16:49:30.036Z,12.39
2023-05-11T16:51:34.527Z,12.41
2023-05-11T16:53:38.431Z,12.45
2023-05-11T16:55:42.662Z,12.46
2023-05-11T16:57:46.372Z,12.44
2023-05-11T16:59:51.963Z,12.38
2023-05-11T17:01:55.582Z,12.30
2023-05-11T17:04:00.022Z,12.23
2023-05-11T17:06:03.949Z,12.17
2023-05-11T17:08:07.958Z,12.15
2023-05-11T17:10:12.620Z,12.17
2023-05-11T17:12:16.333Z,12.22
2023-05-11T17:14:19.965Z,12.24
2023-05-11T17:16:25.315Z,12.27
2023-05-11T17:18:29.604Z,12.30
2023-05-11T17:20:33.634Z,12.24
2023-05-11T17:22:37.754Z,12.17
2023-05-11T17:24:42.103Z,12.09
2023-05-11T17:26:48.295Z,12.06
2023-05-11T17:28:52.800Z,12.07
2023-05-11T17:30:56.699Z,12.06
2023-05-11T17:33:02.327Z,12.04
2023-05-11T17:35:08.461Z,12.02
2023-05-11T17:37:23.728Z,12.04
2023-05-11T17:39:36.073Z,12.06
2023-05-11T17:41:39.949Z,12.10
2023-05-11T17:43:43.487Z,12.12
2023-05-11T17:45:47.229Z,12.13
2023-05-11T17:47:50.851Z,12.13
2023-05-11T17:49:56.328Z,12.14
2023-05-11T17:52:00.178Z,12.14
2023-05-11T17:54:04.039Z,12.18
2023-05-11T17:56:10.094Z,12.16
2023-05-11T17:58:13.848Z,12.14
2023-05-11T18:00:18.755Z,12.15
2023-05-11T18:02:23.308Z,12.13
2023-05-11T18:04:27.414Z,12.16
2023-05-11T18:06:34.869Z,12.22
2023-05-11T18:08:38.595Z,12.24
2023-05-11T18:10:42.835Z,12.18
2023-05-11T18:12:47.744Z,12.15
2023-05-11T18:14:53.100Z,12.14
2023-05-11T18:16:58.118Z,12.02
2023-05-11T18:19:03.657Z,11.97
2023-05-11T18:21:10.953Z,11.93
2023-05-11T18:23:16.618Z,11.90
2023-05-11T18:25:21.677Z,11.87
2023-05-11T18:27:26.205Z,11.87
2023-05-11T18:29:30.760Z,11.88
2023-05-11T18:31:34.582Z,11.91
2023-05-11T18:33:38.429Z,11.90
2023-05-11T18:35:42.447Z,11.88
2023-05-11T18:37:46.053Z,11.82
2023-05-11T18:39:51.370Z,11.81
2023-05-11T18:41:55.171Z,11.76
2023-05-11T18:43:59.044Z,11.72
2023-05-11T18:46:02.740Z,11.69
2023-05-11T18:48:07.006Z,11.68
2023-05-11T18:50:11.811Z,11.64
2023-05-11T18:52:15.386Z,11.62
2023-05-11T18:54:19.308Z,11.58
2023-05-11T18:56:24.379Z,11.56
2023-05-11T18:58:27.952Z,11.55
2023-05-11T19:00:37.180Z,11.56
2023-05-11T19:02:41.405Z,11.59
2023-05-11T19:04:45.222Z,11.63
2023-05-11T19:06:49.160Z,11.70
2023-05-11T19:08:53.893Z,11.82
2023-05-11T19:10:59.137Z,11.88
2023-05-11T19:13:04.357Z,11.84
2023-05-11T19:15:10.061Z,11.81
2023-05-11T19:17:13.861Z,11.71
2023-05-11T19:19:17.819Z,11.63
2023-05-11T19:21:22.594Z,11.60
2023-05-11T19:23:26.237Z,11.50
2023-05-11T19:25:29.855Z,11.48
2023-05-11T19:27:33.513Z,11.46
2023-05-11T19:29:38.905Z,11.43
2023-05-11T19:31:42.910Z,11.35
2023-05-11T19:33:46.662Z,11.30
2023-05-11T19:35:50.181Z,11.27
2023-05-11T19:37:54.137Z,11.26
2023-05-11T19:40:13.533Z,11.22
2023-05-11T19:42:35.708Z,11.19
2023-05-11T19:44:44.718Z,11.17
2023-05-11T19:46:48.436Z,11.16
2023-05-11T19:48:52.141Z,11.13
2023-05-11T19:50:55.793Z,11.10
2023-05-11T19:52:59.704Z,11.08
2023-05-11T19:55:04.061Z,11.04
2023-05-11T19:57:08.013Z,11.03
2023-05-11T19:59:11.719Z,11.00
2023-05-11T20:01:17.090Z,10.97
2023-05-11T20:03:21.604Z,10.97
2023-05-11T20:05:25.736Z,10.99
2023-05-11T20:07:29.932Z,10.95
2023-05-11T20:09:34.084Z,10.90
2023-05-11T20:11:38.757Z,10.84
2023-05-11T20:13:44.483Z,10.84
2023-05-11T20:15:49.046Z,10.87
2023-05-11T20:17:54.310Z,10.89
2023-05-11T20:19:58.687Z,10.85
2023-05-11T20:22:03.426Z,10.84
2023-05-11T20:24:07.974Z,10.83
2023-05-11T20:26:12.116Z,10.86
2023-05-11T20:28:16.280Z,10.91
2023-05-11T20:30:20.679Z,10.99
2023-05-11T20:32:24.830Z,10.98
2023-05-11T20:34:31.015Z,10.97
2023-05-11T20:36:35.627Z,10.95
2023-05-11T20:38:39.746Z,10.91
2023-05-11T20:40:44.964Z,10.91
2023-05-11T20:42:49.459Z,10.96
2023-05-11T20:44:54.456Z,10.96
2023-05-11T20:46:59.351Z,10.96
2023-05-11T20:49:03.822Z,10.97
2023-05-11T20:51:10.019Z,10.95
2023-05-11T20:53:15.785Z,10.92
2023-05-11T20:55:20.787Z,10.91
2023-05-11T20:57:25.895Z,10.91
2023-05-11T21:01:39.690Z,10.92
2023-05-11T21:03:43.771Z,10.90
2023-05-11T21:05:47.871Z,10.88
2023-05-11T21:07:53.751Z,10.84
2023-05-11T21:09:58.034Z,10.86
2023-05-11T21:12:02.535Z,10.88
2023-05-11T21:14:07.081Z,10.91
2023-05-11T21:16:11.009Z,10.92
2023-05-11T21:18:16.113Z,10.92
2023-05-11T21:20:22.020Z,10.92
2023-05-11T21:22:26.665Z,10.92
2023-05-11T21:24:32.925Z,10.92
2023-05-11T21:26:36.645Z,10.90
2023-05-11T21:28:40.912Z,10.88
2023-05-11T21:30:44.659Z,10.86
2023-05-11T21:32:50.784Z,10.83
2023-05-11T21:34:54.905Z,10.79
2023-05-11T21:36:59.927Z,10.76
2023-05-11T21:39:05.069Z,10.73
2023-05-11T21:41:11.409Z,10.70
2023-05-11T21:43:15.318Z,10.65
2023-05-11T21:45:20.099Z,10.61
2023-05-11T21:47:23.718Z,10.57
2023-05-11T21:49:27.382Z,10.52
2023-05-11T21:51:31.445Z,10.49
2023-05-11T21:53:35.671Z,10.46
2023-05-11T21:55:39.811Z,10.45
2023-05-11T21:57:45.185Z,10.41
2023-05-11T21:59:50.580Z,10.40
2023-05-11T22:01:57.366Z,10.36
2023-05-11T22:04:01.631Z,10.35
2023-05-11T22:06:06.295Z,10.33
2023-05-11T22:08:14.913Z,10.31
2023-05-11T22:10:19.929Z,10.27
2023-05-11T22:12:23.866Z,10.24
2023-05-11T22:14:29.320Z,10.21
2023-05-11T22:16:33.558Z,10.17
2023-05-11T22:18:40.654Z,10.16
2023-05-11T22:20:46.583Z,10.14
2023-05-11T22:22:50.330Z,10.12
2023-05-11T22:24:54.643Z,10.11
2023-05-11T22:26:59.568Z,10.09
2023-05-11T22:29:03.511Z,10.07
2023-05-11T22:31:09.392Z,10.06
2023-05-11T22:33:13.851Z,10.06
2023-05-11T22:35:17.999Z,10.03
2023-05-11T22:37:22.485Z,10.01
2023-05-11T22:39:26.320Z,9.97
2023-05-11T22:41:30.646Z,9.95
2023-05-11T22:43:34.448Z,9.92
2023-05-11T22:45:38.740Z,9.88
2023-05-11T22:47:43.969Z,9.85
2023-05-11T22:49:48.311Z,9.81
2023-05-11T22:51:52.924Z,9.77
2023-05-11T22:53:56.748Z,9.75
2023-05-11T22:56:04.323Z,9.73
2023-05-11T22:58:08.300Z,9.72
2023-05-11T23:00:13.697Z,9.73
2023-05-11T23:02:17.509Z,9.74
2023-05-11T23:04:22.975Z,9.76
2023-05-11T23:06:27.021Z,9.77
2023-05-11T23:08:30.874Z,9.78
2023-05-11T23:10:34.590Z,9.78
2023-05-11T23:12:38.111Z,9.77
2023-05-11T23:14:42.045Z,9.77
2023-05-11T23:16:45.684Z,9.76
2023-05-11T23:18:49.363Z,9.73
2023-05-11T23:20:58.551Z,9.71
2023-05-11T23:23:02.276Z,9.70
2023-05-11T23:25:06.317Z,9.67
2023-05-11T23:27:10.036Z,9.65
2023-05-11T23:29:13.948Z,9.64
2023-05-11T23:31:18.206Z,9.61
2023-05-11T23:33:22.161Z,9.58
2023-05-11T23:35:25.785Z,9.58
2023-05-11T23:37:34.051Z,9.57
2023-05-11T23:39:38.629Z,9.53
2023-05-11T23:41:42.473Z,9.51
2023-05-11T23:43:46.127Z,9.49
2023-05-11T23:45:50.077Z,9.47
2023-05-11T23:47:53.942Z,9.46
2023-05-11T23:49:57.682Z,9.45
2023-05-11T23:52:01.397Z,9.46
2023-05-11T23:54:06.866Z,9.43
2023-05-11T23:56:10.757Z,9.41
2023-05-11T23:58:14.273Z,9.41
